sensor_id;sensor_type;location;lat;lon;timestamp;temperature;humidity
1786;DHT22;890;48.158;11.540;2023-02-28T00:01:10;-0.40;66.00
1786;DHT22;890;48.158;11.540;2023-02-28T00:03:36;-0.30;66.20
1786;DHT22;890;48.158;11.540;2023-02-28T00:06:04;-0.30;66.30
1786;DHT22;890;48.158;11.540;2023-02-28T00:08:30;-0.30;66.30
1786;DHT22;890;48.158;11.540;2023-02-28T00:10:55;-0.30;66.40
1786;DHT22;890;48.158;11.540;2023-02-28T00:13:21;-0.30;66.40
1786;DHT22;890;48.158;11.540;2023-02-28T00:15:46;-0.30;66.30
1786;DHT22;890;48.158;11.540;2023-02-28T00:18:12;-0.40;66.10
1786;DHT22;890;48.158;11.540;2023-02-28T00:20:39;-0.40;66.20
1786;DHT22;890;48.158;11.540;2023-02-28T00:23:04;-0.40;66.20
1786;DHT22;890;48.158;11.540;2023-02-28T00:25:30;-0.50;66.20
1786;DHT22;890;48.158;11.540;2023-02-28T00:27:55;-0.50;66.30
1786;DHT22;890;48.158;11.540;2023-02-28T00:30:23;-0.50;66.30
1786;DHT22;890;48.158;11.540;2023-02-28T00:32:49;-0.50;66.40
1786;DHT22;890;48.158;11.540;2023-02-28T00:35:15;-0.50;66.40
1786;DHT22;890;48.158;11.540;2023-02-28T00:37:41;-0.60;66.30
1786;DHT22;890;48.158;11.540;2023-02-28T00:40:08;-0.60;66.40
1786;DHT22;890;48.158;11.540;2023-02-28T00:42:35;-0.60;66.40
1786;DHT22;890;48.158;11.540;2023-02-28T00:45:01;-0.60;66.50
1786;DHT22;890;48.158;11.540;2023-02-28T00:47:29;-0.50;66.50
1786;DHT22;890;48.158;11.540;2023-02-28T00:49:54;-0.50;66.50
1786;DHT22;890;48.158;11.540;2023-02-28T00:52:20;-0.60;66.50
1786;DHT22;890;48.158;11.540;2023-02-28T00:54:46;-0.60;66.30
1786;DHT22;890;48.158;11.540;2023-02-28T00:57:12;-0.60;66.40
1786;DHT22;890;48.158;11.540;2023-02-28T00:59:37;-0.60;66.50
1786;DHT22;890;48.158;11.540;2023-02-28T01:02:03;-0.60;66.40
1786;DHT22;890;48.158;11.540;2023-02-28T01:04:29;-0.60;66.40
1786;DHT22;890;48.158;11.540;2023-02-28T01:06:54;-0.60;66.50
1786;DHT22;890;48.158;11.540;2023-02-28T01:09:20;-0.70;66.40
1786;DHT22;890;48.158;11.540;2023-02-28T01:11:45;-0.70;66.50
1786;DHT22;890;48.158;11.540;2023-02-28T01:14:14;-0.70;66.50
1786;DHT22;890;48.158;11.540;2023-02-28T01:16:40;-0.70;66.70
1786;DHT22;890;48.158;11.540;2023-02-28T01:19:06;-0.60;66.80
1786;DHT22;890;48.158;11.540;2023-02-28T01:21:32;-0.60;66.70
1786;DHT22;890;48.158;11.540;2023-02-28T01:23:58;-0.60;66.60
1786;DHT22;890;48.158;11.540;2023-02-28T01:26:24;-0.70;66.50
1786;DHT22;890;48.158;11.540;2023-02-28T01:28:51;-0.70;66.40
1786;DHT22;890;48.158;11.540;2023-02-28T01:31:17;-0.70;66.40
1786;DHT22;890;48.158;11.540;2023-02-28T01:33:43;-0.80;66.50
1786;DHT22;890;48.158;11.540;2023-02-28T01:36:18;-0.80;66.70
1786;DHT22;890;48.158;11.540;2023-02-28T01:38:44;-0.70;66.80
1786;DHT22;890;48.158;11.540;2023-02-28T01:41:25;-0.70;66.70
1786;DHT22;890;48.158;11.540;2023-02-28T01:44:07;-0.70;66.60
1786;DHT22;890;48.158;11.540;2023-02-28T01:46:51;-0.70;66.70
1786;DHT22;890;48.158;11.540;2023-02-28T01:49:18;-0.70;66.40
1786;DHT22;890;48.158;11.540;2023-02-28T01:51:46;-0.80;66.50
1786;DHT22;890;48.158;11.540;2023-02-28T01:54:31;-0.80;66.60
1786;DHT22;890;48.158;11.540;2023-02-28T01:57:12;-0.80;66.80
1786;DHT22;890;48.158;11.540;2023-02-28T01:59:59;-0.80;66.70
1786;DHT22;890;48.158;11.540;2023-02-28T02:02:26;-0.80;66.60
1786;DHT22;890;48.158;11.540;2023-02-28T02:05:00;-0.90;66.50
1786;DHT22;890;48.158;11.540;2023-02-28T02:07:31;-0.90;66.60
1786;DHT22;890;48.158;11.540;2023-02-28T02:10:13;-0.90;66.60
1786;DHT22;890;48.158;11.540;2023-02-28T02:15:31;-0.90;66.70
1786;DHT22;890;48.158;11.540;2023-02-28T02:18:02;-0.90;66.60
1786;DHT22;890;48.158;11.540;2023-02-28T02:34:51;-1.00;66.70
1786;DHT22;890;48.158;11.540;2023-02-28T02:40:27;-1.00;66.90
1786;DHT22;890;48.158;11.540;2023-02-28T02:45:48;-1.00;66.70
1786;DHT22;890;48.158;11.540;2023-02-28T02:48:18;-1.10;66.80
1786;DHT22;890;48.158;11.540;2023-02-28T02:50:54;-1.10;66.90
1786;DHT22;890;48.158;11.540;2023-02-28T02:53:36;-1.10;67.00
1786;DHT22;890;48.158;11.540;2023-02-28T02:56:04;-1.10;67.10
1786;DHT22;890;48.158;11.540;2023-02-28T02:58:35;-1.20;67.00
1786;DHT22;890;48.158;11.540;2023-02-28T03:01:12;-1.20;67.20
1786;DHT22;890;48.158;11.540;2023-02-28T03:03:40;-1.20;67.30
1786;DHT22;890;48.158;11.540;2023-02-28T03:06:06;-1.10;67.40
1786;DHT22;890;48.158;11.540;2023-02-28T03:08:36;-1.10;67.40
1786;DHT22;890;48.158;11.540;2023-02-28T03:11:10;-1.10;67.30
1786;DHT22;890;48.158;11.540;2023-02-28T03:14:01;-1.10;67.30
1786;DHT22;890;48.158;11.540;2023-02-28T03:19:47;-1.20;67.40
1786;DHT22;890;48.158;11.540;2023-02-28T03:30:54;-1.20;67.50
1786;DHT22;890;48.158;11.540;2023-02-28T03:33:32;-1.20;67.70
1786;DHT22;890;48.158;11.540;2023-02-28T03:36:08;-1.20;67.50
1786;DHT22;890;48.158;11.540;2023-02-28T03:38:52;-1.20;67.70
1786;DHT22;890;48.158;11.540;2023-02-28T03:41:25;-1.10;67.80
1786;DHT22;890;48.158;11.540;2023-02-28T03:43:59;-1.10;67.70
1786;DHT22;890;48.158;11.540;2023-02-28T03:46:30;-1.10;67.70
1786;DHT22;890;48.158;11.540;2023-02-28T03:49:13;-1.00;67.80
1786;DHT22;890;48.158;11.540;2023-02-28T03:51:41;0.40;69.30
1786;DHT22;890;48.158;11.540;2023-02-28T03:54:14;-1.10;67.80
1786;DHT22;890;48.158;11.540;2023-02-28T03:56:45;-1.00;68.00
1786;DHT22;890;48.158;11.540;2023-02-28T03:59:22;-1.10;68.00
1786;DHT22;890;48.158;11.540;2023-02-28T04:01:51;-1.10;68.00
1786;DHT22;890;48.158;11.540;2023-02-28T04:04:17;-1.20;67.90
1786;DHT22;890;48.158;11.540;2023-02-28T04:06:43;-1.20;67.90
1786;DHT22;890;48.158;11.540;2023-02-28T04:09:12;-1.20;68.00
1786;DHT22;890;48.158;11.540;2023-02-28T04:11:38;-1.10;68.10
1786;DHT22;890;48.158;11.540;2023-02-28T04:14:05;-1.10;68.00
1786;DHT22;890;48.158;11.540;2023-02-28T04:16:33;-1.10;68.10
1786;DHT22;890;48.158;11.540;2023-02-28T04:18:58;-1.10;68.00
1786;DHT22;890;48.158;11.540;2023-02-28T04:21:32;-1.10;68.20
1786;DHT22;890;48.158;11.540;2023-02-28T04:23:58;-1.00;68.40
1786;DHT22;890;48.158;11.540;2023-02-28T04:26:28;-1.10;68.30
1786;DHT22;890;48.158;11.540;2023-02-28T04:28:55;-1.10;68.40
1786;DHT22;890;48.158;11.540;2023-02-28T04:31:21;-1.00;68.50
1786;DHT22;890;48.158;11.540;2023-02-28T04:33:47;-1.00;68.40
1786;DHT22;890;48.158;11.540;2023-02-28T04:36:12;-0.90;68.60
1786;DHT22;890;48.158;11.540;2023-02-28T04:38:39;-0.90;68.60
1786;DHT22;890;48.158;11.540;2023-02-28T04:41:05;-0.80;68.80
1786;DHT22;890;48.158;11.540;2023-02-28T04:43:32;-0.80;68.80
1786;DHT22;890;48.158;11.540;2023-02-28T04:46:00;-0.70;68.70
1786;DHT22;890;48.158;11.540;2023-02-28T04:48:28;-0.70;68.90
1786;DHT22;890;48.158;11.540;2023-02-28T04:50:54;-0.60;69.00
1786;DHT22;890;48.158;11.540;2023-02-28T04:53:20;-0.60;69.00
1786;DHT22;890;48.158;11.540;2023-02-28T04:55:46;-0.60;68.90
1786;DHT22;890;48.158;11.540;2023-02-28T04:58:13;-0.60;68.80
1786;DHT22;890;48.158;11.540;2023-02-28T05:00:39;-0.60;68.80
1786;DHT22;890;48.158;11.540;2023-02-28T05:03:05;-0.50;69.00
1786;DHT22;890;48.158;11.540;2023-02-28T05:05:30;-0.50;69.10
1786;DHT22;890;48.158;11.540;2023-02-28T05:07:56;-0.60;69.00
1786;DHT22;890;48.158;11.540;2023-02-28T05:10:22;-0.60;69.10
1786;DHT22;890;48.158;11.540;2023-02-28T05:12:47;-0.50;69.30
1786;DHT22;890;48.158;11.540;2023-02-28T05:15:14;-0.40;69.40
1786;DHT22;890;48.158;11.540;2023-02-28T05:17:40;-0.50;69.10
1786;DHT22;890;48.158;11.540;2023-02-28T05:20:07;-0.40;69.30
1786;DHT22;890;48.158;11.540;2023-02-28T05:22:39;-0.50;69.10
1786;DHT22;890;48.158;11.540;2023-02-28T05:25:05;-0.50;69.30
1786;DHT22;890;48.158;11.540;2023-02-28T05:27:32;-0.50;69.50
1786;DHT22;890;48.158;11.540;2023-02-28T05:29:57;-0.50;69.50
1786;DHT22;890;48.158;11.540;2023-02-28T05:32:24;-0.40;69.30
1786;DHT22;890;48.158;11.540;2023-02-28T05:34:49;-0.40;69.40
1786;DHT22;890;48.158;11.540;2023-02-28T05:37:15;-0.40;69.40
1786;DHT22;890;48.158;11.540;2023-02-28T05:39:43;-0.40;69.30
1786;DHT22;890;48.158;11.540;2023-02-28T05:42:08;-0.40;69.40
1786;DHT22;890;48.158;11.540;2023-02-28T05:44:35;-0.40;69.40
1786;DHT22;890;48.158;11.540;2023-02-28T05:47:00;-0.50;69.40
1786;DHT22;890;48.158;11.540;2023-02-28T05:49:26;-0.50;69.40
1786;DHT22;890;48.158;11.540;2023-02-28T05:51:52;-0.50;69.60
1786;DHT22;890;48.158;11.540;2023-02-28T05:54:17;-0.40;69.70
1786;DHT22;890;48.158;11.540;2023-02-28T05:56:43;-0.40;69.60
1786;DHT22;890;48.158;11.540;2023-02-28T05:59:12;-0.40;69.60
1786;DHT22;890;48.158;11.540;2023-02-28T06:01:42;-0.50;69.50
1786;DHT22;890;48.158;11.540;2023-02-28T06:04:14;-0.50;69.60
1786;DHT22;890;48.158;11.540;2023-02-28T06:06:43;-0.40;69.70
1786;DHT22;890;48.158;11.540;2023-02-28T06:09:10;-0.40;69.70
1786;DHT22;890;48.158;11.540;2023-02-28T06:11:35;-0.40;69.80
1786;DHT22;890;48.158;11.540;2023-02-28T06:14:02;-0.50;69.60
1786;DHT22;890;48.158;11.540;2023-02-28T06:16:31;-0.50;69.70
1786;DHT22;890;48.158;11.540;2023-02-28T06:18:57;-0.50;69.80
1786;DHT22;890;48.158;11.540;2023-02-28T06:21:23;-0.40;69.90
1786;DHT22;890;48.158;11.540;2023-02-28T06:23:49;-0.40;69.90
1786;DHT22;890;48.158;11.540;2023-02-28T06:26:15;-0.20;70.20
1786;DHT22;890;48.158;11.540;2023-02-28T06:28:41;-0.20;70.00
1786;DHT22;890;48.158;11.540;2023-02-28T06:31:08;-0.20;70.10
1786;DHT22;890;48.158;11.540;2023-02-28T06:33:34;-0.10;70.10
1786;DHT22;890;48.158;11.540;2023-02-28T06:36:00;-0.20;69.90
1786;DHT22;890;48.158;11.540;2023-02-28T06:38:26;-0.10;70.10
1786;DHT22;890;48.158;11.540;2023-02-28T06:40:56;-0.10;70.00
1786;DHT22;890;48.158;11.540;2023-02-28T06:43:22;-0.20;69.80
1786;DHT22;890;48.158;11.540;2023-02-28T06:45:48;-0.30;69.80
1786;DHT22;890;48.158;11.540;2023-02-28T06:48:14;-0.40;69.80
1786;DHT22;890;48.158;11.540;2023-02-28T06:50:40;-0.50;69.80
1786;DHT22;890;48.158;11.540;2023-02-28T06:53:05;-0.40;70.20
1786;DHT22;890;48.158;11.540;2023-02-28T06:55:31;-0.30;70.30
1786;DHT22;890;48.158;11.540;2023-02-28T06:57:57;-0.20;70.40
1786;DHT22;890;48.158;11.540;2023-02-28T07:00:23;-0.10;70.30
1786;DHT22;890;48.158;11.540;2023-02-28T07:02:50;-0.20;70.00
1786;DHT22;890;48.158;11.540;2023-02-28T07:05:15;-0.20;70.10
1786;DHT22;890;48.158;11.540;2023-02-28T07:07:41;-0.20;70.10
1786;DHT22;890;48.158;11.540;2023-02-28T07:10:11;-0.20;70.00
1786;DHT22;890;48.158;11.540;2023-02-28T07:12:37;-0.30;70.00
1786;DHT22;890;48.158;11.540;2023-02-28T07:15:04;-0.20;70.20
1786;DHT22;890;48.158;11.540;2023-02-28T07:17:29;-0.20;70.30
1786;DHT22;890;48.158;11.540;2023-02-28T07:19:55;-0.20;70.10
1786;DHT22;890;48.158;11.540;2023-02-28T07:22:21;-0.10;70.30
1786;DHT22;890;48.158;11.540;2023-02-28T07:24:47;-0.10;70.30
1786;DHT22;890;48.158;11.540;2023-02-28T07:27:12;-0.10;70.10
1786;DHT22;890;48.158;11.540;2023-02-28T07:29:51;-1.10;69.30
1786;DHT22;890;48.158;11.540;2023-02-28T07:32:18;-0.20;70.00
1786;DHT22;890;48.158;11.540;2023-02-28T07:34:44;-0.20;70.20
1786;DHT22;890;48.158;11.540;2023-02-28T07:37:10;0.00;70.50
1786;DHT22;890;48.158;11.540;2023-02-28T07:39:35;0.00;70.20
1786;DHT22;890;48.158;11.540;2023-02-28T07:42:04;0.00;70.30
1786;DHT22;890;48.158;11.540;2023-02-28T07:44:30;0.00;70.20
1786;DHT22;890;48.158;11.540;2023-02-28T07:46:55;0.00;70.10
1786;DHT22;890;48.158;11.540;2023-02-28T07:49:21;0.00;70.10
1786;DHT22;890;48.158;11.540;2023-02-28T07:51:47;-0.10;70.00
1786;DHT22;890;48.158;11.540;2023-02-28T07:54:12;-0.10;70.10
1786;DHT22;890;48.158;11.540;2023-02-28T07:56:38;0.00;70.20
1786;DHT22;890;48.158;11.540;2023-02-28T07:59:03;0.00;70.40
1786;DHT22;890;48.158;11.540;2023-02-28T08:01:29;0.00;70.60
1786;DHT22;890;48.158;11.540;2023-02-28T08:03:54;0.10;70.70
1786;DHT22;890;48.158;11.540;2023-02-28T08:06:23;0.00;70.40
1786;DHT22;890;48.158;11.540;2023-02-28T08:08:49;0.10;70.40
1786;DHT22;890;48.158;11.540;2023-02-28T08:11:16;0.10;70.30
1786;DHT22;890;48.158;11.540;2023-02-28T08:13:43;0.10;70.40
1786;DHT22;890;48.158;11.540;2023-02-28T08:16:09;0.20;70.50
1786;DHT22;890;48.158;11.540;2023-02-28T08:18:35;0.20;70.40
1786;DHT22;890;48.158;11.540;2023-02-28T08:21:08;0.20;70.50
1786;DHT22;890;48.158;11.540;2023-02-28T08:23:34;0.20;70.70
1786;DHT22;890;48.158;11.540;2023-02-28T08:26:00;0.30;70.50
1786;DHT22;890;48.158;11.540;2023-02-28T08:28:26;0.30;70.70
1786;DHT22;890;48.158;11.540;2023-02-28T08:30:52;0.40;70.70
1786;DHT22;890;48.158;11.540;2023-02-28T08:33:17;0.40;70.50
1786;DHT22;890;48.158;11.540;2023-02-28T08:35:43;0.40;70.40
1786;DHT22;890;48.158;11.540;2023-02-28T08:38:08;0.30;70.40
1786;DHT22;890;48.158;11.540;2023-02-28T08:40:34;0.40;70.40
1786;DHT22;890;48.158;11.540;2023-02-28T08:42:59;0.40;70.40
1786;DHT22;890;48.158;11.540;2023-02-28T08:45:25;0.40;70.30
1786;DHT22;890;48.158;11.540;2023-02-28T08:47:51;0.40;70.40
1786;DHT22;890;48.158;11.540;2023-02-28T08:50:18;0.50;70.50
1786;DHT22;890;48.158;11.540;2023-02-28T08:52:44;0.40;70.40
1786;DHT22;890;48.158;11.540;2023-02-28T08:55:10;0.50;70.60
1786;DHT22;890;48.158;11.540;2023-02-28T08:57:35;0.50;70.50
1786;DHT22;890;48.158;11.540;2023-02-28T09:00:02;0.60;70.40
1786;DHT22;890;48.158;11.540;2023-02-28T09:02:30;0.50;70.10
1786;DHT22;890;48.158;11.540;2023-02-28T09:04:57;0.50;70.20
1786;DHT22;890;48.158;11.540;2023-02-28T09:07:23;0.50;70.40
1786;DHT22;890;48.158;11.540;2023-02-28T09:09:49;0.60;71.20
1786;DHT22;890;48.158;11.540;2023-02-28T09:12:23;0.70;70.70
1786;DHT22;890;48.158;11.540;2023-02-28T09:14:49;0.70;70.70
1786;DHT22;890;48.158;11.540;2023-02-28T09:17:15;0.70;70.60
1786;DHT22;890;48.158;11.540;2023-02-28T09:19:41;0.70;70.70
1786;DHT22;890;48.158;11.540;2023-02-28T09:22:06;0.80;70.60
1786;DHT22;890;48.158;11.540;2023-02-28T09:24:32;0.90;70.50
1786;DHT22;890;48.158;11.540;2023-02-28T09:26:57;0.90;70.40
1786;DHT22;890;48.158;11.540;2023-02-28T09:29:23;1.00;70.60
1786;DHT22;890;48.158;11.540;2023-02-28T09:31:48;1.00;70.40
1786;DHT22;890;48.158;11.540;2023-02-28T09:34:15;1.20;70.70
1786;DHT22;890;48.158;11.540;2023-02-28T09:36:42;1.10;70.90
1786;DHT22;890;48.158;11.540;2023-02-28T09:39:08;1.20;71.20
1786;DHT22;890;48.158;11.540;2023-02-28T09:41:42;1.30;71.00
1786;DHT22;890;48.158;11.540;2023-02-28T09:44:39;1.30;70.90
1786;DHT22;890;48.158;11.540;2023-02-28T09:47:25;1.40;70.80
1786;DHT22;890;48.158;11.540;2023-02-28T09:49:52;1.50;71.20
1786;DHT22;890;48.158;11.540;2023-02-28T09:52:25;1.60;71.30
1786;DHT22;890;48.158;11.540;2023-02-28T09:54:52;1.60;71.40
1786;DHT22;890;48.158;11.540;2023-02-28T09:57:39;1.80;71.50
1786;DHT22;890;48.158;11.540;2023-02-28T10:02:54;1.80;71.30
1786;DHT22;890;48.158;11.540;2023-02-28T10:05:28;1.70;70.90
1786;DHT22;890;48.158;11.540;2023-02-28T10:10:42;1.70;70.60
1786;DHT22;890;48.158;11.540;2023-02-28T10:13:36;1.80;71.00
1786;DHT22;890;48.158;11.540;2023-02-28T10:19:29;2.20;71.40
1786;DHT22;890;48.158;11.540;2023-02-28T10:22:17;2.30;71.90
1786;DHT22;890;48.158;11.540;2023-02-28T10:24:46;2.30;71.50
1786;DHT22;890;48.158;11.540;2023-02-28T10:27:16;2.40;71.50
1786;DHT22;890;48.158;11.540;2023-02-28T10:29:45;2.40;71.30
1786;DHT22;890;48.158;11.540;2023-02-28T10:32:14;2.50;71.30
1786;DHT22;890;48.158;11.540;2023-02-28T10:34:41;2.60;70.90
1786;DHT22;890;48.158;11.540;2023-02-28T10:37:06;2.60;70.10
1786;DHT22;890;48.158;11.540;2023-02-28T10:39:37;2.50;69.80
1786;DHT22;890;48.158;11.540;2023-02-28T10:42:04;2.50;70.50
1786;DHT22;890;48.158;11.540;2023-02-28T10:44:30;2.70;70.90
1786;DHT22;890;48.158;11.540;2023-02-28T10:46:56;2.80;71.60
1786;DHT22;890;48.158;11.540;2023-02-28T10:49:27;3.10;72.90
1786;DHT22;890;48.158;11.540;2023-02-28T10:51:56;3.30;72.80
1786;DHT22;890;48.158;11.540;2023-02-28T10:54:34;3.40;71.80
1786;DHT22;890;48.158;11.540;2023-02-28T10:59:32;3.50;70.80
1786;DHT22;890;48.158;11.540;2023-02-28T11:01:58;3.50;71.80
1786;DHT22;890;48.158;11.540;2023-02-28T11:07:21;3.60;72.00
1786;DHT22;890;48.158;11.540;2023-02-28T11:09:51;3.60;71.70
1786;DHT22;890;48.158;11.540;2023-02-28T11:12:30;3.50;71.60
1786;DHT22;890;48.158;11.540;2023-02-28T11:15:07;3.40;71.00
1786;DHT22;890;48.158;11.540;2023-02-28T11:17:43;3.50;70.60
1786;DHT22;890;48.158;11.540;2023-02-28T11:20:20;3.50;70.30
1786;DHT22;890;48.158;11.540;2023-02-28T11:22:47;3.70;70.40
1786;DHT22;890;48.158;11.540;2023-02-28T11:25:23;3.90;70.30
1786;DHT22;890;48.158;11.540;2023-02-28T11:27:52;4.10;70.30
1786;DHT22;890;48.158;11.540;2023-02-28T11:30:36;4.70;73.80
1786;DHT22;890;48.158;11.540;2023-02-28T11:35:50;7.40;77.20
1786;DHT22;890;48.158;11.540;2023-02-28T11:38:16;8.50;77.50
1786;DHT22;890;48.158;11.540;2023-02-28T11:43:53;9.30;71.40
1786;DHT22;890;48.158;11.540;2023-02-28T11:46:47;9.70;70.00
1786;DHT22;890;48.158;11.540;2023-02-28T11:49:29;10.00;72.10
1786;DHT22;890;48.158;11.540;2023-02-28T11:52:26;10.50;70.20
1786;DHT22;890;48.158;11.540;2023-02-28T12:00:28;10.10;63.30
1786;DHT22;890;48.158;11.540;2023-02-28T12:03:22;10.10;66.10
1786;DHT22;890;48.158;11.540;2023-02-28T12:05:56;10.70;68.50
1786;DHT22;890;48.158;11.540;2023-02-28T12:11:40;11.50;66.80
1786;DHT22;890;48.158;11.540;2023-02-28T12:14:35;11.60;68.00
1786;DHT22;890;48.158;11.540;2023-02-28T12:18:27;12.00;66.70
1786;DHT22;890;48.158;11.540;2023-02-28T12:28:24;10.30;56.40
1786;DHT22;890;48.158;11.540;2023-02-28T12:31:30;9.70;57.10
1786;DHT22;890;48.158;11.540;2023-02-28T12:33:52;9.20;55.90
1786;DHT22;890;48.158;11.540;2023-02-28T12:36:20;9.40;61.00
1786;DHT22;890;48.158;11.540;2023-02-28T12:39:01;9.20;58.00
1786;DHT22;890;48.158;11.540;2023-02-28T12:41:37;8.80;55.30
1786;DHT22;890;48.158;11.540;2023-02-28T12:44:13;8.30;54.30
1786;DHT22;890;48.158;11.540;2023-02-28T12:46:46;7.80;53.60
1786;DHT22;890;48.158;11.540;2023-02-28T12:49:39;7.30;53.50
1786;DHT22;890;48.158;11.540;2023-02-28T12:52:06;7.00;53.40
1786;DHT22;890;48.158;11.540;2023-02-28T12:54:43;6.80;53.60
1786;DHT22;890;48.158;11.540;2023-02-28T12:59:54;6.70;54.10
1786;DHT22;890;48.158;11.540;2023-02-28T13:02:33;6.60;53.70
1786;DHT22;890;48.158;11.540;2023-02-28T13:10:47;6.00;53.00
1786;DHT22;890;48.158;11.540;2023-02-28T13:13:26;6.00;53.50
1786;DHT22;890;48.158;11.540;2023-02-28T13:16:07;6.00;54.00
1786;DHT22;890;48.158;11.540;2023-02-28T13:18:38;6.00;54.00
1786;DHT22;890;48.158;11.540;2023-02-28T13:21:10;6.00;53.90
1786;DHT22;890;48.158;11.540;2023-02-28T13:26:22;6.00;54.00
1786;DHT22;890;48.158;11.540;2023-02-28T13:31:14;6.30;54.20
1786;DHT22;890;48.158;11.540;2023-02-28T13:39:44;6.20;53.60
1786;DHT22;890;48.158;11.540;2023-02-28T13:41:49;8.20;55.00
1786;DHT22;890;48.158;11.540;2023-02-28T13:44:22;6.20;53.40
1786;DHT22;890;48.158;11.540;2023-02-28T13:51:50;8.40;55.50
1786;DHT22;890;48.158;11.540;2023-02-28T13:54:28;5.80;53.80
1786;DHT22;890;48.158;11.540;2023-02-28T14:02:47;5.50;53.90
1786;DHT22;890;48.158;11.540;2023-02-28T14:05:18;5.50;54.10
1786;DHT22;890;48.158;11.540;2023-02-28T14:07:46;5.60;54.10
1786;DHT22;890;48.158;11.540;2023-02-28T14:10:29;5.50;54.00
1786;DHT22;890;48.158;11.540;2023-02-28T14:13:00;5.30;54.10
1786;DHT22;890;48.158;11.540;2023-02-28T14:18:31;5.20;54.60
1786;DHT22;890;48.158;11.540;2023-02-28T14:24:13;5.20;54.80
1786;DHT22;890;48.158;11.540;2023-02-28T14:27:03;5.20;54.60
1786;DHT22;890;48.158;11.540;2023-02-28T14:37:46;4.80;55.20
1786;DHT22;890;48.158;11.540;2023-02-28T14:42:58;4.80;55.40
1786;DHT22;890;48.158;11.540;2023-02-28T14:45:26;4.70;55.60
1786;DHT22;890;48.158;11.540;2023-02-28T14:47:52;4.70;55.50
1786;DHT22;890;48.158;11.540;2023-02-28T14:50:33;4.70;55.60
1786;DHT22;890;48.158;11.540;2023-02-28T14:53:00;4.70;55.60
1786;DHT22;890;48.158;11.540;2023-02-28T14:55:30;4.80;55.70
1786;DHT22;890;48.158;11.540;2023-02-28T14:58:05;4.70;55.70
1786;DHT22;890;48.158;11.540;2023-02-28T15:00:34;4.80;55.80
1786;DHT22;890;48.158;11.540;2023-02-28T15:05:58;4.90;55.70
1786;DHT22;890;48.158;11.540;2023-02-28T15:08:25;5.00;55.60
1786;DHT22;890;48.158;11.540;2023-02-28T15:13:23;4.90;55.80
1786;DHT22;890;48.158;11.540;2023-02-28T15:16:01;4.80;55.90
1786;DHT22;890;48.158;11.540;2023-02-28T15:18:54;4.70;56.20
1786;DHT22;890;48.158;11.540;2023-02-28T15:21:27;4.70;56.40
1786;DHT22;890;48.158;11.540;2023-02-28T15:24:36;4.70;56.30
1786;DHT22;890;48.158;11.540;2023-02-28T15:27:04;4.60;56.50
1786;DHT22;890;48.158;11.540;2023-02-28T15:29:33;4.60;56.50
1786;DHT22;890;48.158;11.540;2023-02-28T15:32:07;4.60;56.60
1786;DHT22;890;48.158;11.540;2023-02-28T15:34:43;4.70;56.80
1786;DHT22;890;48.158;11.540;2023-02-28T15:39:57;4.70;56.90
1786;DHT22;890;48.158;11.540;2023-02-28T15:42:28;4.70;56.90
1786;DHT22;890;48.158;11.540;2023-02-28T15:44:54;4.60;56.90
1786;DHT22;890;48.158;11.540;2023-02-28T15:47:22;4.80;57.10
1786;DHT22;890;48.158;11.540;2023-02-28T15:49:57;4.60;57.00
1786;DHT22;890;48.158;11.540;2023-02-28T15:52:53;4.60;57.00
1786;DHT22;890;48.158;11.540;2023-02-28T15:55:23;4.60;57.30
1786;DHT22;890;48.158;11.540;2023-02-28T15:57:52;4.70;57.30
1786;DHT22;890;48.158;11.540;2023-02-28T16:00:24;4.70;57.30
1786;DHT22;890;48.158;11.540;2023-02-28T16:02:50;4.60;57.30
1786;DHT22;890;48.158;11.540;2023-02-28T16:05:23;4.70;57.60
1786;DHT22;890;48.158;11.540;2023-02-28T16:07:54;4.70;57.70
1786;DHT22;890;48.158;11.540;2023-02-28T16:10:21;4.60;57.50
1786;DHT22;890;48.158;11.540;2023-02-28T16:12:47;4.60;57.60
1786;DHT22;890;48.158;11.540;2023-02-28T16:15:22;4.80;57.70
1786;DHT22;890;48.158;11.540;2023-02-28T16:17:48;4.70;57.70
1786;DHT22;890;48.158;11.540;2023-02-28T16:20:17;4.50;57.40
1786;DHT22;890;48.158;11.540;2023-02-28T16:22:43;4.40;57.50
1786;DHT22;890;48.158;11.540;2023-02-28T16:25:13;4.50;57.90
1786;DHT22;890;48.158;11.540;2023-02-28T16:27:40;4.40;58.10
1786;DHT22;890;48.158;11.540;2023-02-28T16:30:07;4.50;58.20
1786;DHT22;890;48.158;11.540;2023-02-28T16:32:36;4.50;58.30
1786;DHT22;890;48.158;11.540;2023-02-28T16:35:02;4.40;58.30
1786;DHT22;890;48.158;11.540;2023-02-28T16:37:28;4.40;58.40
1786;DHT22;890;48.158;11.540;2023-02-28T16:39:54;4.30;58.40
1786;DHT22;890;48.158;11.540;2023-02-28T16:42:26;4.20;58.30
1786;DHT22;890;48.158;11.540;2023-02-28T16:44:53;4.10;58.30
1786;DHT22;890;48.158;11.540;2023-02-28T16:47:19;4.20;58.40
1786;DHT22;890;48.158;11.540;2023-02-28T16:49:45;4.30;58.70
1786;DHT22;890;48.158;11.540;2023-02-28T16:52:13;4.20;58.70
1786;DHT22;890;48.158;11.540;2023-02-28T16:54:39;4.10;58.60
1786;DHT22;890;48.158;11.540;2023-02-28T16:57:06;4.00;58.50
1786;DHT22;890;48.158;11.540;2023-02-28T16:59:38;3.90;58.50
1786;DHT22;890;48.158;11.540;2023-02-28T17:02:12;3.90;58.50
1786;DHT22;890;48.158;11.540;2023-02-28T17:04:38;4.00;59.10
1786;DHT22;890;48.158;11.540;2023-02-28T17:07:03;3.90;58.70
1786;DHT22;890;48.158;11.540;2023-02-28T17:09:29;3.80;58.60
1786;DHT22;890;48.158;11.540;2023-02-28T17:11:54;4.00;59.00
1786;DHT22;890;48.158;11.540;2023-02-28T17:14:21;3.70;58.70
1786;DHT22;890;48.158;11.540;2023-02-28T17:16:48;3.80;58.80
1786;DHT22;890;48.158;11.540;2023-02-28T17:19:15;3.80;58.80
1786;DHT22;890;48.158;11.540;2023-02-28T17:21:42;3.90;59.40
1786;DHT22;890;48.158;11.540;2023-02-28T17:24:09;3.80;59.40
1786;DHT22;890;48.158;11.540;2023-02-28T17:26:38;3.80;59.30
1786;DHT22;890;48.158;11.540;2023-02-28T17:29:14;3.80;59.30
1786;DHT22;890;48.158;11.540;2023-02-28T17:31:40;3.80;59.40
1786;DHT22;890;48.158;11.540;2023-02-28T17:34:06;3.80;59.30
1786;DHT22;890;48.158;11.540;2023-02-28T17:36:32;3.80;59.20
1786;DHT22;890;48.158;11.540;2023-02-28T17:38:59;3.80;59.10
1786;DHT22;890;48.158;11.540;2023-02-28T17:41:25;3.80;59.30
1786;DHT22;890;48.158;11.540;2023-02-28T17:43:52;3.80;59.60
1786;DHT22;890;48.158;11.540;2023-02-28T17:46:20;3.80;59.40
1786;DHT22;890;48.158;11.540;2023-02-28T17:48:50;3.80;60.10
1786;DHT22;890;48.158;11.540;2023-02-28T17:51:17;3.90;59.50
1786;DHT22;890;48.158;11.540;2023-02-28T17:53:43;4.00;59.90
1786;DHT22;890;48.158;11.540;2023-02-28T17:56:24;4.10;60.20
1786;DHT22;890;48.158;11.540;2023-02-28T17:58:51;4.00;60.40
1786;DHT22;890;48.158;11.540;2023-02-28T18:01:18;3.90;59.90
1786;DHT22;890;48.158;11.540;2023-02-28T18:03:45;3.80;59.90
1786;DHT22;890;48.158;11.540;2023-02-28T18:06:20;3.80;60.00
1786;DHT22;890;48.158;11.540;2023-02-28T18:08:46;3.80;60.10
1786;DHT22;890;48.158;11.540;2023-02-28T18:11:12;3.90;60.10
1786;DHT22;890;48.158;11.540;2023-02-28T18:13:53;3.80;59.90
1786;DHT22;890;48.158;11.540;2023-02-28T18:16:20;3.90;60.20
1786;DHT22;890;48.158;11.540;2023-02-28T18:18:49;3.90;60.00
1786;DHT22;890;48.158;11.540;2023-02-28T18:21:16;3.90;59.90
1786;DHT22;890;48.158;11.540;2023-02-28T18:23:43;3.90;60.00
1786;DHT22;890;48.158;11.540;2023-02-28T18:26:17;4.00;60.30
1786;DHT22;890;48.158;11.540;2023-02-28T18:28:43;4.00;60.20
1786;DHT22;890;48.158;11.540;2023-02-28T18:31:11;4.00;60.30
1786;DHT22;890;48.158;11.540;2023-02-28T18:33:39;4.10;60.30